sensor_id;sensor_type;location;lat;lon;timestamp;pressure;altitude;pressure_sealevel;temperature;humidity
61472;BME280;47337;54.068;12.114;2022-10-16T00:00:41;100628.59;;;14.36;100.00
61472;BME280;47337;54.068;12.114;2022-10-16T00:03:07;100636.59;;;14.27;100.00
61472;BME280;47337;54.068;12.114;2022-10-16T00:05:40;100635.72;;;14.28;100.00
61472;BME280;47337;54.068;12.114;2022-10-16T00:08:10;100636.56;;;14.32;100.00
61472;BME280;47337;54.068;12.114;2022-10-16T00:10:36;100657.72;;;14.28;100.00
61472;BME280;47337;54.068;12.114;2022-10-16T00:13:01;100654.19;;;14.28;100.00
61472;BME280;47337;54.068;12.114;2022-10-16T00:15:27;100649.78;;;14.30;100.00
61472;BME280;47337;54.068;12.114;2022-10-16T00:17:52;100652.44;;;14.28;100.00
61472;BME280;47337;54.068;12.114;2022-10-16T00:20:18;100661.19;;;14.32;100.00
61472;BME280;47337;54.068;12.114;2022-10-16T00:22:43;100665.59;;;14.32;100.00
61472;BME280;47337;54.068;12.114;2022-10-16T00:25:08;100666.53;;;14.27;100.00
61472;BME280;47337;54.068;12.114;2022-10-16T00:27:36;100671.81;;;14.26;100.00
61472;BME280;47337;54.068;12.114;2022-10-16T00:30:04;100671.00;;;14.18;100.00
61472;BME280;47337;54.068;12.114;2022-10-16T00:32:32;100671.00;;;14.18;100.00
61472;BME280;47337;54.068;12.114;2022-10-16T00:34:57;100685.97;;;14.14;100.00
61472;BME280;47337;54.068;12.114;2022-10-16T00:37:23;100693.88;;;14.14;100.00
61472;BME280;47337;54.068;12.114;2022-10-16T00:39:48;100692.13;;;14.13;100.00
61472;BME280;47337;54.068;12.114;2022-10-16T00:42:19;100693.06;;;14.08;100.00
61472;BME280;47337;54.068;12.114;2022-10-16T00:44:53;100699.22;;;14.04;100.00
61472;BME280;47337;54.068;12.114;2022-10-16T00:47:32;100709.78;;;14.02;100.00
61472;BME280;47337;54.068;12.114;2022-10-16T00:50:12;100716.81;;;14.03;100.00
61472;BME280;47337;54.068;12.114;2022-10-16T00:52:42;100713.34;;;13.98;100.00
61472;BME280;47337;54.068;12.114;2022-10-16T00:55:09;100730.03;;;13.99;100.00
61472;BME280;47337;54.068;12.114;2022-10-16T00:57:35;100724.75;;;14.00;100.00
61472;BME280;47337;54.068;12.114;2022-10-16T01:00:04;100725.63;;;13.99;100.00
61472;BME280;47337;54.068;12.114;2022-10-16T01:02:30;100730.91;;;13.99;100.00
61472;BME280;47337;54.068;12.114;2022-10-16T01:04:55;100737.97;;;13.92;100.00
61472;BME280;47337;54.068;12.114;2022-10-16T01:07:34;100743.25;;;13.91;100.00
61472;BME280;47337;54.068;12.114;2022-10-16T01:12:45;100744.13;;;13.88;100.00
61472;BME280;47337;54.068;12.114;2022-10-16T01:15:26;100737.13;;;13.80;100.00
61472;BME280;47337;54.068;12.114;2022-10-16T01:20:32;100742.44;;;13.74;100.00
61472;BME280;47337;54.068;12.114;2022-10-16T01:25:59;100763.56;;;13.69;100.00
61472;BME280;47337;54.068;12.114;2022-10-16T01:28:34;100760.94;;;13.66;100.00
61472;BME280;47337;54.068;12.114;2022-10-16T01:31:01;100766.22;;;13.62;100.00
61472;BME280;47337;54.068;12.114;2022-10-16T01:33:33;100767.06;;;13.67;100.00
61472;BME280;47337;54.068;12.114;2022-10-16T01:36:06;100780.28;;;13.61;100.00
61472;BME280;47337;54.068;12.114;2022-10-16T01:38:38;100784.72;;;13.54;100.00
61472;BME280;47337;54.068;12.114;2022-10-16T01:41:13;100783.81;;;13.53;100.00
61472;BME280;47337;54.068;12.114;2022-10-16T01:43:45;100787.31;;;13.57;100.00
61472;BME280;47337;54.068;12.114;2022-10-16T01:46:13;100789.09;;;13.55;100.00
61472;BME280;47337;54.068;12.114;2022-10-16T01:48:41;100796.09;;;13.56;100.00
61472;BME280;47337;54.068;12.114;2022-10-16T01:51:09;100795.25;;;13.54;100.00
61472;BME280;47337;54.068;12.114;2022-10-16T01:53:37;100796.13;;;13.54;100.00
61472;BME280;47337;54.068;12.114;2022-10-16T01:56:05;100797.88;;;13.52;100.00
61472;BME280;47337;54.068;12.114;2022-10-16T01:58:39;100812.84;;;13.52;100.00
61472;BME280;47337;54.068;12.114;2022-10-16T02:01:08;100817.22;;;13.51;100.00
61472;BME280;47337;54.068;12.114;2022-10-16T02:03:37;100815.47;;;13.52;100.00
61472;BME280;47337;54.068;12.114;2022-10-16T02:06:05;100814.59;;;13.62;100.00
61472;BME280;47337;54.068;12.114;2022-10-16T02:08:32;100826.00;;;13.56;100.00
61472;BME280;47337;54.068;12.114;2022-10-16T02:10:59;100821.59;;;13.57;100.00
61472;BME280;47337;54.068;12.114;2022-10-16T02:13:36;100819.84;;;13.56;100.00
61472;BME280;47337;54.068;12.114;2022-10-16T02:16:02;100827.75;;;13.57;100.00
61472;BME280;47337;54.068;12.114;2022-10-16T02:18:28;100827.78;;;13.54;100.00
61472;BME280;47337;54.068;12.114;2022-10-16T02:24:15;100843.59;;;13.47;100.00
61472;BME280;47337;54.068;12.114;2022-10-16T02:26:48;100841.84;;;13.47;100.00
61472;BME280;47337;54.068;12.114;2022-10-16T02:29:18;100851.53;;;13.45;100.00
61472;BME280;47337;54.068;12.114;2022-10-16T02:31:55;100851.53;;;13.41;100.00
61472;BME280;47337;54.068;12.114;2022-10-16T02:34:21;100842.72;;;13.39;100.00
61472;BME280;47337;54.068;12.114;2022-10-16T02:36:50;100841.84;;;13.35;100.00
61472;BME280;47337;54.068;12.114;2022-10-16T02:39:17;100850.63;;;13.30;100.00
61472;BME280;47337;54.068;12.114;2022-10-16T02:41:45;100855.03;;;13.34;100.00
61472;BME280;47337;54.068;12.114;2022-10-16T02:44:11;100857.69;;;13.23;100.00
61472;BME280;47337;54.068;12.114;2022-10-16T02:46:39;100855.03;;;13.28;100.00
61472;BME280;47337;54.068;12.114;2022-10-16T02:49:04;100859.41;;;13.29;100.00
61472;BME280;47337;54.068;12.114;2022-10-16T02:51:29;100862.94;;;13.26;100.00
61472;BME280;47337;54.068;12.114;2022-10-16T02:53:55;100864.69;;;13.23;100.00
61472;BME280;47337;54.068;12.114;2022-10-16T02:56:20;100866.47;;;13.24;100.00
61472;BME280;47337;54.068;12.114;2022-10-16T02:58:49;100864.69;;;13.23;100.00
61472;BME280;47337;54.068;12.114;2022-10-16T03:01:14;100860.31;;;13.23;100.00
61472;BME280;47337;54.068;12.114;2022-10-16T03:03:42;100858.50;;;13.11;100.00
61472;BME280;47337;54.068;12.114;2022-10-16T03:06:07;100855.00;;;13.12;100.00
61472;BME280;47337;54.068;12.114;2022-10-16T03:08:35;100848.84;;;13.12;100.00
61472;BME280;47337;54.068;12.114;2022-10-16T03:11:00;100854.97;;;13.06;100.00
61472;BME280;47337;54.068;12.114;2022-10-16T03:13:28;100854.97;;;12.97;100.00
61472;BME280;47337;54.068;12.114;2022-10-16T03:15:54;100859.38;;;13.03;100.00
61472;BME280;47337;54.068;12.114;2022-10-16T03:18:19;100857.59;;;12.99;100.00
61472;BME280;47337;54.068;12.114;2022-10-16T03:20:44;100862.84;;;12.94;100.00
61472;BME280;47337;54.068;12.114;2022-10-16T03:23:10;100865.47;;;12.94;100.00
61472;BME280;47337;54.068;12.114;2022-10-16T03:25:35;100864.63;;;12.89;100.00
61472;BME280;47337;54.068;12.114;2022-10-16T03:28:01;100875.13;;;12.86;100.00
61472;BME280;47337;54.068;12.114;2022-10-16T03:30:27;100868.97;;;12.84;100.00
61472;BME280;47337;54.068;12.114;2022-10-16T03:32:52;100876.88;;;12.86;100.00
61472;BME280;47337;54.068;12.114;2022-10-16T03:35:22;100883.88;;;12.82;100.00
61472;BME280;47337;54.068;12.114;2022-10-16T03:37:48;100884.78;;;12.82;100.00
61472;BME280;47337;54.068;12.114;2022-10-16T03:40:14;100896.19;;;12.78;100.00
61472;BME280;47337;54.068;12.114;2022-10-16T03:42:40;100890.91;;;12.77;100.00
61472;BME280;47337;54.068;12.114;2022-10-16T03:45:10;100905.84;;;12.76;100.00
61472;BME280;47337;54.068;12.114;2022-10-16T03:47:36;100903.19;;;12.70;100.00
61472;BME280;47337;54.068;12.114;2022-10-16T03:50:02;100912.84;;;12.70;100.00
61472;BME280;47337;54.068;12.114;2022-10-16T03:52:27;100908.41;;;12.61;100.00
61472;BME280;47337;54.068;12.114;2022-10-16T03:54:53;100898.78;;;12.60;100.00
61472;BME280;47337;54.068;12.114;2022-10-16T03:57:18;100902.25;;;12.56;100.00
61472;BME280;47337;54.068;12.114;2022-10-16T03:59:43;100909.28;;;12.62;100.00
61472;BME280;47337;54.068;12.114;2022-10-16T04:02:09;100907.53;;;12.58;100.00
61472;BME280;47337;54.068;12.114;2022-10-16T04:04:34;100910.13;;;12.52;100.00
61472;BME280;47337;54.068;12.114;2022-10-16T04:07:00;100907.44;;;12.42;100.00
61472;BME280;47337;54.068;12.114;2022-10-16T04:09:25;100903.88;;;12.33;100.00
61472;BME280;47337;54.068;12.114;2022-10-16T04:11:54;100916.16;;;12.26;100.00
61472;BME280;47337;54.068;12.114;2022-10-16T04:14:19;100901.22;;;12.25;100.00
61472;BME280;47337;54.068;12.114;2022-10-16T04:16:44;100909.97;;;12.17;100.00
61472;BME280;47337;54.068;12.114;2022-10-16T04:19:17;100921.28;;;12.08;100.00
61472;BME280;47337;54.068;12.114;2022-10-16T04:21:42;100921.25;;;12.02;100.00
61472;BME280;47337;54.068;12.114;2022-10-16T04:24:10;100922.97;;;11.94;100.00
61472;BME280;47337;54.068;12.114;2022-10-16T04:26:36;100913.25;;;11.87;100.00
61472;BME280;47337;54.068;12.114;2022-10-16T04:29:02;100927.25;;;11.83;100.00
61472;BME280;47337;54.068;12.114;2022-10-16T04:31:28;100935.09;;;11.77;100.00
61472;BME280;47337;54.068;12.114;2022-10-16T04:33:53;100934.19;;;11.76;100.00
61472;BME280;47337;54.068;12.114;2022-10-16T04:36:20;100939.38;;;11.68;100.00
61472;BME280;47337;54.068;12.114;2022-10-16T04:38:46;100933.28;;;11.72;100.00
61472;BME280;47337;54.068;12.114;2022-10-16T04:41:11;100940.34;;;11.77;100.00
61472;BME280;47337;54.068;12.114;2022-10-16T04:43:36;100939.38;;;11.68;100.00
61472;BME280;47337;54.068;12.114;2022-10-16T04:46:02;100939.28;;;11.59;100.00
61472;BME280;47337;54.068;12.114;2022-10-16T04:48:30;100948.00;;;11.55;100.00
61472;BME280;47337;54.068;12.114;2022-10-16T04:50:55;100940.06;;;11.49;100.00
61472;BME280;47337;54.068;12.114;2022-10-16T04:53:21;100944.47;;;11.49;100.00
61472;BME280;47337;54.068;12.114;2022-10-16T04:55:46;100940.91;;;11.42;100.00
61472;BME280;47337;54.068;12.114;2022-10-16T04:58:14;100947.88;;;11.38;100.00
61472;BME280;47337;54.068;12.114;2022-10-16T05:00:39;100945.19;;;11.34;100.00
61472;BME280;47337;54.068;12.114;2022-10-16T05:03:05;100955.69;;;11.34;100.00
61472;BME280;47337;54.068;12.114;2022-10-16T05:05:34;100954.81;;;11.32;100.00
61472;BME280;47337;54.068;12.114;2022-10-16T05:08:00;100953.00;;;11.26;100.00
61472;BME280;47337;54.068;12.114;2022-10-16T05:10:26;100967.06;;;11.30;100.00
61472;BME280;47337;54.068;12.114;2022-10-16T05:12:51;100975.75;;;11.24;100.00
61472;BME280;47337;54.068;12.114;2022-10-16T05:15:17;100980.09;;;11.21;100.00
61472;BME280;47337;54.068;12.114;2022-10-16T05:17:43;100984.41;;;11.16;100.00
61472;BME280;47337;54.068;12.114;2022-10-16T05:20:09;100989.69;;;11.17;100.00
61472;BME280;47337;54.068;12.114;2022-10-16T05:22:34;100988.84;;;11.20;100.00
61472;BME280;47337;54.068;12.114;2022-10-16T05:25:00;100997.66;;;11.25;100.00
61472;BME280;47337;54.068;12.114;2022-10-16T05:27:25;100999.38;;;11.20;100.00
61472;BME280;47337;54.068;12.114;2022-10-16T05:29:53;101007.22;;;11.18;100.00
61472;BME280;47337;54.068;12.114;2022-10-16T05:32:21;101011.53;;;11.15;100.00
61472;BME280;47337;54.068;12.114;2022-10-16T05:34:46;101029.06;;;11.16;100.00
61472;BME280;47337;54.068;12.114;2022-10-16T05:37:12;101025.53;;;11.14;100.00
61472;BME280;47337;54.068;12.114;2022-10-16T05:39:42;101026.56;;;11.25;100.00
61472;BME280;47337;54.068;12.114;2022-10-16T05:42:07;101036.28;;;11.32;100.00
61472;BME280;47337;54.068;12.114;2022-10-16T05:44:35;101037.25;;;11.40;100.00
61472;BME280;47337;54.068;12.114;2022-10-16T05:47:03;101036.28;;;11.32;100.00
61472;BME280;47337;54.068;12.114;2022-10-16T05:49:28;101041.47;;;11.26;100.00
61472;BME280;47337;54.068;12.114;2022-10-16T05:51:53;101051.13;;;11.27;100.00
61472;BME280;47337;54.068;12.114;2022-10-16T05:54:21;101041.44;;;11.21;100.00
61472;BME280;47337;54.068;12.114;2022-10-16T05:56:46;101046.81;;;11.32;100.00
61472;BME280;47337;54.068;12.114;2022-10-16T05:59:15;101054.59;;;11.24;100.00
61472;BME280;47337;54.068;12.114;2022-10-16T06:01:40;101066.72;;;11.15;100.00
61472;BME280;47337;54.068;12.114;2022-10-16T06:04:05;101074.69;;;11.21;100.00
61472;BME280;47337;54.068;12.114;2022-10-16T06:06:31;101082.50;;;11.16;100.00
61472;BME280;47337;54.068;12.114;2022-10-16T06:08:56;101078.16;;;11.18;100.00
61472;BME280;47337;54.068;12.114;2022-10-16T06:11:25;101090.47;;;11.21;100.00
61472;BME280;47337;54.068;12.114;2022-10-16T06:13:56;101090.50;;;11.25;100.00
61472;BME280;47337;54.068;12.114;2022-10-16T06:16:23;101101.09;;;11.30;100.00
61472;BME280;47337;54.068;12.114;2022-10-16T06:18:51;101102.88;;;11.32;100.00
61472;BME280;47337;54.068;12.114;2022-10-16T06:21:19;101117.78;;;11.35;100.00
61472;BME280;47337;54.068;12.114;2022-10-16T06:23:45;101117.88;;;11.41;100.00
61472;BME280;47337;54.068;12.114;2022-10-16T06:26:12;101127.53;;;11.42;100.00
61472;BME280;47337;54.068;12.114;2022-10-16T06:28:38;101134.63;;;11.49;100.00
61472;BME280;47337;54.068;12.114;2022-10-16T06:31:05;101134.63;;;11.49;100.00
61472;BME280;47337;54.068;12.114;2022-10-16T06:33:31;101134.69;;;11.52;100.00
61472;BME280;47337;54.068;12.114;2022-10-16T06:36:01;101132.09;;;11.58;100.00
61472;BME280;47337;54.068;12.114;2022-10-16T06:38:29;101127.78;;;11.63;100.00
61472;BME280;47337;54.068;12.114;2022-10-16T06:40:57;101134.84;;;11.67;100.00
61472;BME280;47337;54.068;12.114;2022-10-16T06:43:28;101128.91;;;11.81;100.00
61472;BME280;47337;54.068;12.114;2022-10-16T06:45:58;101127.16;;;11.83;100.00
61472;BME280;47337;54.068;12.114;2022-10-16T06:48:24;101130.72;;;11.88;100.00
61472;BME280;47337;54.068;12.114;2022-10-16T06:51:02;101130.75;;;11.91;100.00
61472;BME280;47337;54.068;12.114;2022-10-16T06:53:31;101135.19;;;11.93;100.00
61472;BME280;47337;54.068;12.114;2022-10-16T06:55:57;101133.56;;;12.06;100.00
61472;BME280;47337;54.068;12.114;2022-10-16T06:58:23;101136.22;;;12.10;100.00
61472;BME280;47337;54.068;12.114;2022-10-16T07:00:49;101144.22;;;12.18;100.00
61472;BME280;47337;54.068;12.114;2022-10-16T07:03:19;101141.59;;;12.23;100.00
61472;BME280;47337;54.068;12.114;2022-10-16T07:05:46;101139.91;;;12.31;100.00
61472;BME280;47337;54.068;12.114;2022-10-16T07:08:11;101137.38;;;12.38;100.00
61472;BME280;47337;54.068;12.114;2022-10-16T07:10:36;101137.41;;;12.44;100.00
61472;BME280;47337;54.068;12.114;2022-10-16T07:13:02;101125.19;;;12.50;100.00
61472;BME280;47337;54.068;12.114;2022-10-16T07:15:28;101122.56;;;12.54;100.00
61472;BME280;47337;54.068;12.114;2022-10-16T07:17:53;101122.59;;;12.56;100.00
61472;BME280;47337;54.068;12.114;2022-10-16T07:20:19;101119.06;;;12.54;100.00
61472;BME280;47337;54.068;12.114;2022-10-16T07:22:45;101113.00;;;12.64;100.00
61472;BME280;47337;54.068;12.114;2022-10-16T07:25:10;101107.78;;;12.70;100.00
61472;BME280;47337;54.068;12.114;2022-10-16T07:27:38;101100.81;;;12.79;100.00
61472;BME280;47337;54.068;12.114;2022-10-16T07:30:06;101092.09;;;12.93;100.00
61472;BME280;47337;54.068;12.114;2022-10-16T07:32:31;101083.44;;;13.13;100.00
61472;BME280;47337;54.068;12.114;2022-10-16T07:34:57;101082.75;;;13.45;100.00
61472;BME280;47337;54.068;12.114;2022-10-16T07:37:24;101075.75;;;13.67;100.00
61472;BME280;47337;54.068;12.114;2022-10-16T07:39:50;101060.88;;;13.96;100.00
61472;BME280;47337;54.068;12.114;2022-10-16T07:42:15;101046.78;;;14.59;100.00
61472;BME280;47337;54.068;12.114;2022-10-16T07:44:42;101033.56;;;14.62;100.00
61472;BME280;47337;54.068;12.114;2022-10-16T07:47:08;101004.47;;;14.78;100.00
61472;BME280;47337;54.068;12.114;2022-10-16T07:49:36;100986.75;;;14.95;100.00
61472;BME280;47337;54.068;12.114;2022-10-16T07:52:01;100949.72;;;15.04;100.00
61472;BME280;47337;54.068;12.114;2022-10-16T07:54:27;100920.47;;;15.33;100.00
61472;BME280;47337;54.068;12.114;2022-10-16T07:56:54;100902.75;;;15.44;100.00
61472;BME280;47337;54.068;12.114;2022-10-16T07:59:22;100883.44;;;15.31;100.00
61472;BME280;47337;54.068;12.114;2022-10-16T08:01:49;100873.81;;;15.21;100.00
61472;BME280;47337;54.068;12.114;2022-10-16T08:04:15;100861.34;;;15.37;100.00
61472;BME280;47337;54.068;12.114;2022-10-16T08:06:41;100855.94;;;15.51;100.00
61472;BME280;47337;54.068;12.114;2022-10-16T08:09:07;100844.41;;;15.59;100.00
61472;BME280;47337;54.068;12.114;2022-10-16T08:11:35;100831.97;;;15.69;100.00
61472;BME280;47337;54.068;12.114;2022-10-16T08:14:00;100823.09;;;15.78;100.00
61472;BME280;47337;54.068;12.114;2022-10-16T08:16:26;100816.03;;;15.77;100.00
61472;BME280;47337;54.068;12.114;2022-10-16T08:18:51;100813.31;;;15.84;100.00
61472;BME280;47337;54.068;12.114;2022-10-16T08:21:20;100816.72;;;15.95;100.00
61472;BME280;47337;54.068;12.114;2022-10-16T08:23:46;100801.25;;;16.32;100.00
61472;BME280;47337;54.068;12.114;2022-10-16T08:26:14;100795.34;;;16.10;100.00
61472;BME280;47337;54.068;12.114;2022-10-16T08:28:39;100795.41;;;16.04;100.00
61472;BME280;47337;54.068;12.114;2022-10-16T08:31:15;100807.66;;;16.15;100.00
61472;BME280;47337;54.068;12.114;2022-10-16T08:33:42;100804.00;;;16.25;100.00
61472;BME280;47337;54.068;12.114;2022-10-16T08:36:12;100793.50;;;16.17;100.00
61472;BME280;47337;54.068;12.114;2022-10-16T08:38:38;100797.81;;;16.24;100.00
61472;BME280;47337;54.068;12.114;2022-10-16T08:49:30;100803.22;;;16.17;100.00
61472;BME280;47337;54.068;12.114;2022-10-16T08:51:56;100799.94;;;15.96;100.00
61472;BME280;47337;54.068;12.114;2022-10-16T08:54:32;100813.19;;;15.96;100.00
61472;BME280;47337;54.068;12.114;2022-10-16T08:57:11;100811.31;;;16.03;100.00
61472;BME280;47337;54.068;12.114;2022-10-16T08:59:38;100812.03;;;16.19;100.00
61472;BME280;47337;54.068;12.114;2022-10-16T09:07:23;100792.66;;;16.15;100.00
61472;BME280;47337;54.068;12.114;2022-10-16T09:12:48;100811.69;;;16.46;100.00
61472;BME280;47337;54.068;12.114;2022-10-16T09:25:33;100792.41;;;16.96;100.00
61472;BME280;47337;54.068;12.114;2022-10-16T09:28:00;100792.59;;;16.86;100.00
61472;BME280;47337;54.068;12.114;2022-10-16T09:30:27;100785.44;;;16.92;100.00
61472;BME280;47337;54.068;12.114;2022-10-16T09:32:58;100776.09;;;17.22;100.00
61472;BME280;47337;54.068;12.114;2022-10-16T09:35:44;100774.69;;;17.00;100.00
61472;BME280;47337;54.068;12.114;2022-10-16T09:40:58;100776.16;;;16.59;100.00
61472;BME280;47337;54.068;12.114;2022-10-16T09:46:39;100786.03;;;16.50;100.00
61472;BME280;47337;54.068;12.114;2022-10-16T09:48:48;100794.88;;;16.47;100.00
61472;BME280;47337;54.068;12.114;2022-10-16T09:51:28;100799.00;;;16.72;100.00
61472;BME280;47337;54.068;12.114;2022-10-16T09:56:25;100788.09;;;16.91;100.00
61472;BME280;47337;54.068;12.114;2022-10-16T09:58:59;100787.06;;;17.01;100.00
61472;BME280;47337;54.068;12.114;2022-10-16T10:01:36;100766.63;;;17.06;100.00
61472;BME280;47337;54.068;12.114;2022-10-16T10:04:06;100769.72;;;17.34;100.00
61472;BME280;47337;54.068;12.114;2022-10-16T10:06:34;100751.78;;;17.46;100.00
61472;BME280;47337;54.068;12.114;2022-10-16T10:12:03;100751.78;;;17.46;100.00
61472;BME280;47337;54.068;12.114;2022-10-16T10:14:34;100755.22;;;17.51;100.00
61472;BME280;47337;54.068;12.114;2022-10-16T10:17:11;100754.44;;;17.94;100.00
61472;BME280;47337;54.068;12.114;2022-10-16T10:30:29;100750.50;;;18.12;100.00
61472;BME280;47337;54.068;12.114;2022-10-16T10:38:51;100763.66;;;18.19;100.00
61472;BME280;47337;54.068;12.114;2022-10-16T10:46:50;100740.13;;;18.43;100.00
61472;BME280;47337;54.068;12.114;2022-10-16T10:52:13;100722.41;;;18.42;99.38
61472;BME280;47337;54.068;12.114;2022-10-16T10:54:54;100715.41;;;18.38;97.94
61472;BME280;47337;54.068;12.114;2022-10-16T11:08:40;100718.94;;;18.77;95.04
61472;BME280;47337;54.068;12.114;2022-10-16T11:11:33;100722.63;;;18.71;95.19
61472;BME280;47337;54.068;12.114;2022-10-16T11:14:09;100710.31;;;18.67;94.04
61472;BME280;47337;54.068;12.114;2022-10-16T11:16:43;100697.69;;;18.75;92.87
61472;BME280;47337;54.068;12.114;2022-10-16T11:21:56;100699.97;;;18.92;92.25
61472;BME280;47337;54.068;12.114;2022-10-16T11:24:42;100688.53;;;18.87;91.48
61472;BME280;47337;54.068;12.114;2022-10-16T11:27:15;100689.59;;;18.81;90.96
61472;BME280;47337;54.068;12.114;2022-10-16T11:30:03;100703.50;;;18.92;90.78
61472;BME280;47337;54.068;12.114;2022-10-16T11:32:45;100691.03;;;18.94;89.65
61472;BME280;47337;54.068;12.114;2022-10-16T11:35:39;100682.03;;;18.98;88.68
61472;BME280;47337;54.068;12.114;2022-10-16T11:38:10;100665.03;;;19.06;87.80
61472;BME280;47337;54.068;12.114;2022-10-16T11:40:41;100671.75;;;19.19;87.37
61472;BME280;47337;54.068;12.114;2022-10-16T11:43:26;100684.53;;;19.06;87.11
61472;BME280;47337;54.068;12.114;2022-10-16T11:45:55;100672.16;;;19.04;86.97
61472;BME280;47337;54.068;12.114;2022-10-16T11:51:12;100676.47;;;19.08;86.59
61472;BME280;47337;54.068;12.114;2022-10-16T11:53:53;100679.91;;;19.13;86.45
61472;BME280;47337;54.068;12.114;2022-10-16T11:56:22;100673.53;;;19.18;86.34
61472;BME280;47337;54.068;12.114;2022-10-16T12:04:22;100662.41;;;19.36;85.30
61472;BME280;47337;54.068;12.114;2022-10-16T12:07:05;100675.75;;;19.35;85.11
61472;BME280;47337;54.068;12.114;2022-10-16T12:09:37;100667.84;;;19.32;84.49
61472;BME280;47337;54.068;12.114;2022-10-16T12:12:03;100673.94;;;19.37;84.61
61472;BME280;47337;54.068;12.114;2022-10-16T12:16:58;100650.41;;;19.54;82.52
61472;BME280;47337;54.068;12.114;2022-10-16T12:19:29;100632.66;;;19.53;81.67
61472;BME280;47337;54.068;12.114;2022-10-16T12:21:59;100632.50;;;19.59;80.91
61472;BME280;47337;54.068;12.114;2022-10-16T12:24:38;100646.28;;;19.73;80.85
61472;BME280;47337;54.068;12.114;2022-10-16T12:27:21;100638.81;;;19.86;79.89
61472;BME280;47337;54.068;12.114;2022-10-16T12:29:55;100619.34;;;19.83;79.34
61472;BME280;47337;54.068;12.114;2022-10-16T12:32:29;100630.69;;;19.91;78.94
61472;BME280;47337;54.068;12.114;2022-10-16T12:34:56;100634.31;;;19.88;78.43
61472;BME280;47337;54.068;12.114;2022-10-16T12:37:35;100630.94;;;19.82;78.39
61472;BME280;47337;54.068;12.114;2022-10-16T12:40:14;100645.19;;;20.10;77.96
61472;BME280;47337;54.068;12.114;2022-10-16T12:42:40;100633.22;;;19.94;77.02
61472;BME280;47337;54.068;12.114;2022-10-16T12:45:29;100645.47;;;20.01;77.41
61472;BME280;47337;54.068;12.114;2022-10-16T12:48:01;100659.16;;;19.89;77.55
61472;BME280;47337;54.068;12.114;2022-10-16T12:50:38;100644.31;;;19.80;76.85
61472;BME280;47337;54.068;12.114;2022-10-16T12:53:24;100653.84;;;19.89;76.52
61472;BME280;47337;54.068;12.114;2022-10-16T12:56:13;100671.56;;;19.90;76.53
61472;BME280;47337;54.068;12.114;2022-10-16T13:02:55;100642.22;;;19.60;74.24
61472;BME280;47337;54.068;12.114;2022-10-16T13:14:05;100685.66;;;19.62;74.95
61472;BME280;47337;54.068;12.114;2022-10-16T13:16:39;100678.09;;;19.49;74.81
61472;BME280;47337;54.068;12.114;2022-10-16T13:30:30;100684.28;;;19.80;73.56
61472;BME280;47337;54.068;12.114;2022-10-16T13:35:51;100679.84;;;19.81;73.09
61472;BME280;47337;54.068;12.114;2022-10-16T13:38:20;100685.00;;;19.85;73.07
61472;BME280;47337;54.068;12.114;2022-10-16T13:40:50;100689.09;;;19.67;73.40
61472;BME280;47337;54.068;12.114;2022-10-16T13:43:23;100696.44;;;19.59;73.68
61472;BME280;47337;54.068;12.114;2022-10-16T13:46:04;100683.31;;;19.52;72.97
61472;BME280;47337;54.068;12.114;2022-10-16T13:48:33;100676.84;;;19.60;72.07
61472;BME280;47337;54.068;12.114;2022-10-16T13:53:33;100675.78;;;19.97;70.93
61472;BME280;47337;54.068;12.114;2022-10-16T13:56:00;100674.03;;;19.96;70.34
61472;BME280;47337;54.068;12.114;2022-10-16T13:58:29;100670.19;;;20.06;70.14
61472;BME280;47337;54.068;12.114;2022-10-16T14:01:00;100665.72;;;20.06;69.61
61472;BME280;47337;54.068;12.114;2022-10-16T14:03:27;100675.03;;;19.92;69.53
61472;BME280;47337;54.068;12.114;2022-10-16T14:05:59;100680.91;;;19.73;70.05
61472;BME280;47337;54.068;12.114;2022-10-16T14:08:26;100695.09;;;19.74;70.74
61472;BME280;47337;54.068;12.114;2022-10-16T14:10:55;100701.75;;;19.59;70.89
61472;BME280;47337;54.068;12.114;2022-10-16T14:13:45;100721.69;;;19.43;71.75
61472;BME280;47337;54.068;12.114;2022-10-16T14:16:17;100729.06;;;19.32;71.90
61472;BME280;47337;54.068;12.114;2022-10-16T14:18:49;100754.44;;;19.13;72.56
61472;BME280;47337;54.068;12.114;2022-10-16T14:21:19;100771.47;;;19.06;73.18
61472;BME280;47337;54.068;12.114;2022-10-16T14:23:45;100771.84;;;18.89;73.59
61472;BME280;47337;54.068;12.114;2022-10-16T14:28:36;100780.09;;;18.78;73.81
61472;BME280;47337;54.068;12.114;2022-10-16T14:33:51;100792.97;;;18.58;74.68
61472;BME280;47337;54.068;12.114;2022-10-16T14:36:17;100813.38;;;18.57;75.10
61472;BME280;47337;54.068;12.114;2022-10-16T14:39:00;100823.09;;;18.57;75.27
61472;BME280;47337;54.068;12.114;2022-10-16T14:41:30;100829.06;;;18.70;75.36
61472;BME280;47337;54.068;12.114;2022-10-16T14:44:01;100822.66;;;18.78;74.96
61472;BME280;47337;54.068;12.114;2022-10-16T14:46:36;100816.59;;;18.72;75.04
61472;BME280;47337;54.068;12.114;2022-10-16T14:49:17;100830.69;;;18.75;75.32
61472;BME280;47337;54.068;12.114;2022-10-16T14:51:45;100838.88;;;18.66;75.82
61472;BME280;47337;54.068;12.114;2022-10-16T14:54:12;100846.03;;;18.64;75.59
61472;BME280;47337;54.068;12.114;2022-10-16T14:56:53;100812.34;;;18.64;74.49